sensor_id;sensor_type;location;lat;lon;timestamp;P1;durP1;ratioP1;P2;durP2;ratioP2
16113;SDS011;8161;-33.910;151.156;2023-04-15T00:00:25;6.00;;;1.20;;
16113;SDS011;8161;-33.910;151.156;2023-04-15T00:02:53;5.35;;;1.10;;
16113;SDS011;8161;-33.910;151.156;2023-04-15T00:05:21;5.23;;;0.90;;
16113;SDS011;8161;-33.910;151.156;2023-04-15T00:07:48;3.22;;;0.70;;
16113;SDS011;8161;-33.910;151.156;2023-04-15T00:10:15;5.73;;;0.90;;
16113;SDS011;8161;-33.910;151.156;2023-04-15T00:12:43;4.05;;;1.27;;
16113;SDS011;8161;-33.910;151.156;2023-04-15T00:15:10;4.38;;;0.90;;
16113;SDS011;8161;-33.910;151.156;2023-04-15T00:17:37;2.58;;;0.90;;
16113;SDS011;8161;-33.910;151.156;2023-04-15T00:20:05;3.53;;;1.00;;
16113;SDS011;8161;-33.910;151.156;2023-04-15T00:22:32;4.20;;;0.98;;
16113;SDS011;8161;-33.910;151.156;2023-04-15T00:25:00;4.05;;;0.80;;
16113;SDS011;8161;-33.910;151.156;2023-04-15T00:27:27;3.38;;;1.00;;
16113;SDS011;8161;-33.910;151.156;2023-04-15T00:29:55;3.28;;;0.90;;
16113;SDS011;8161;-33.910;151.156;2023-04-15T00:32:25;2.90;;;0.80;;
16113;SDS011;8161;-33.910;151.156;2023-04-15T00:34:52;3.17;;;0.85;;
16113;SDS011;8161;-33.910;151.156;2023-04-15T00:37:23;1.70;;;0.55;;
16113;SDS011;8161;-33.910;151.156;2023-04-15T00:39:50;2.80;;;0.70;;
16113;SDS011;8161;-33.910;151.156;2023-04-15T00:42:17;2.57;;;0.67;;
16113;SDS011;8161;-33.910;151.156;2023-04-15T00:44:46;3.60;;;0.60;;
16113;SDS011;8161;-33.910;151.156;2023-04-15T00:47:13;2.27;;;0.60;;
16113;SDS011;8161;-33.910;151.156;2023-04-15T00:49:41;3.20;;;0.73;;
16113;SDS011;8161;-33.910;151.156;2023-04-15T00:52:08;2.47;;;0.57;;
16113;SDS011;8161;-33.910;151.156;2023-04-15T00:54:35;3.45;;;0.77;;
16113;SDS011;8161;-33.910;151.156;2023-04-15T00:57:04;4.68;;;0.90;;
16113;SDS011;8161;-33.910;151.156;2023-04-15T00:59:32;4.50;;;0.90;;
16113;SDS011;8161;-33.910;151.156;2023-04-15T01:02:03;3.15;;;0.68;;
16113;SDS011;8161;-33.910;151.156;2023-04-15T01:04:31;3.20;;;0.60;;
16113;SDS011;8161;-33.910;151.156;2023-04-15T01:06:59;4.45;;;0.70;;
16113;SDS011;8161;-33.910;151.156;2023-04-15T01:09:26;3.35;;;0.60;;
16113;SDS011;8161;-33.910;151.156;2023-04-15T01:12:11;2.22;;;0.60;;
16113;SDS011;8161;-33.910;151.156;2023-04-15T01:14:40;3.92;;;0.85;;
16113;SDS011;8161;-33.910;151.156;2023-04-15T01:17:08;1.77;;;0.57;;
16113;SDS011;8161;-33.910;151.156;2023-04-15T01:19:35;3.53;;;0.77;;
16113;SDS011;8161;-33.910;151.156;2023-04-15T01:22:03;3.67;;;0.90;;
16113;SDS011;8161;-33.910;151.156;2023-04-15T01:24:31;1.25;;;0.50;;
16113;SDS011;8161;-33.910;151.156;2023-04-15T01:26:59;4.57;;;0.63;;
16113;SDS011;8161;-33.910;151.156;2023-04-15T01:29:26;3.00;;;0.45;;
16113;SDS011;8161;-33.910;151.156;2023-04-15T01:31:54;2.17;;;0.50;;
16113;SDS011;8161;-33.910;151.156;2023-04-15T01:34:22;3.13;;;0.70;;
16113;SDS011;8161;-33.910;151.156;2023-04-15T01:36:49;2.53;;;0.60;;
16113;SDS011;8161;-33.910;151.156;2023-04-15T01:39:16;2.47;;;0.83;;
16113;SDS011;8161;-33.910;151.156;2023-04-15T01:41:44;5.57;;;0.68;;
16113;SDS011;8161;-33.910;151.156;2023-04-15T01:44:11;1.13;;;0.40;;
16113;SDS011;8161;-33.910;151.156;2023-04-15T01:46:38;2.70;;;0.60;;
16113;SDS011;8161;-33.910;151.156;2023-04-15T01:49:06;2.65;;;0.50;;
16113;SDS011;8161;-33.910;151.156;2023-04-15T01:51:33;1.80;;;0.43;;
16113;SDS011;8161;-33.910;151.156;2023-04-15T01:54:00;3.10;;;0.80;;
16113;SDS011;8161;-33.910;151.156;2023-04-15T01:56:27;2.63;;;0.57;;
16113;SDS011;8161;-33.910;151.156;2023-04-15T01:58:54;3.97;;;0.88;;
16113;SDS011;8161;-33.910;151.156;2023-04-15T02:01:22;3.40;;;0.77;;
16113;SDS011;8161;-33.910;151.156;2023-04-15T02:03:49;2.63;;;0.40;;
16113;SDS011;8161;-33.910;151.156;2023-04-15T02:06:16;2.08;;;0.55;;
16113;SDS011;8161;-33.910;151.156;2023-04-15T02:08:44;2.63;;;0.65;;
16113;SDS011;8161;-33.910;151.156;2023-04-15T02:11:11;3.13;;;0.70;;
16113;SDS011;8161;-33.910;151.156;2023-04-15T02:13:38;1.52;;;0.40;;
16113;SDS011;8161;-33.910;151.156;2023-04-15T02:16:27;4.05;;;0.68;;
16113;SDS011;8161;-33.910;151.156;2023-04-15T02:18:53;2.00;;;0.50;;
16113;SDS011;8161;-33.910;151.156;2023-04-15T02:21:20;1.83;;;0.57;;
16113;SDS011;8161;-33.910;151.156;2023-04-15T02:23:48;2.17;;;0.52;;
16113;SDS011;8161;-33.910;151.156;2023-04-15T02:26:15;3.70;;;0.40;;
16113;SDS011;8161;-33.910;151.156;2023-04-15T02:28:42;2.28;;;0.50;;
16113;SDS011;8161;-33.910;151.156;2023-04-15T02:31:10;4.43;;;0.70;;
16113;SDS011;8161;-33.910;151.156;2023-04-15T02:33:37;2.25;;;0.50;;
16113;SDS011;8161;-33.910;151.156;2023-04-15T02:36:05;1.75;;;0.57;;
16113;SDS011;8161;-33.910;151.156;2023-04-15T02:38:32;3.30;;;0.57;;
16113;SDS011;8161;-33.910;151.156;2023-04-15T02:41:00;1.38;;;0.60;;
16113;SDS011;8161;-33.910;151.156;2023-04-15T02:43:27;2.00;;;0.50;;
16113;SDS011;8161;-33.910;151.156;2023-04-15T02:45:55;3.80;;;0.52;;
16113;SDS011;8161;-33.910;151.156;2023-04-15T02:48:22;1.55;;;0.50;;
16113;SDS011;8161;-33.910;151.156;2023-04-15T02:50:49;1.98;;;0.90;;
16113;SDS011;8161;-33.910;151.156;2023-04-15T02:53:17;2.78;;;0.80;;
16113;SDS011;8161;-33.910;151.156;2023-04-15T02:55:44;4.43;;;1.10;;
16113;SDS011;8161;-33.910;151.156;2023-04-15T02:58:11;2.00;;;0.60;;
16113;SDS011;8161;-33.910;151.156;2023-04-15T03:00:39;2.60;;;0.60;;
16113;SDS011;8161;-33.910;151.156;2023-04-15T03:03:06;2.65;;;0.60;;
16113;SDS011;8161;-33.910;151.156;2023-04-15T03:05:33;1.63;;;0.50;;
16113;SDS011;8161;-33.910;151.156;2023-04-15T03:08:03;3.33;;;0.60;;
16113;SDS011;8161;-33.910;151.156;2023-04-15T03:10:31;2.22;;;0.65;;
16113;SDS011;8161;-33.910;151.156;2023-04-15T03:12:58;3.30;;;0.90;;
16113;SDS011;8161;-33.910;151.156;2023-04-15T03:15:25;2.42;;;0.45;;
16113;SDS011;8161;-33.910;151.156;2023-04-15T03:17:53;1.70;;;0.50;;
16113;SDS011;8161;-33.910;151.156;2023-04-15T03:20:20;1.25;;;0.47;;
16113;SDS011;8161;-33.910;151.156;2023-04-15T03:22:47;2.53;;;0.68;;
16113;SDS011;8161;-33.910;151.156;2023-04-15T03:25:15;3.85;;;0.73;;
16113;SDS011;8161;-33.910;151.156;2023-04-15T03:27:42;2.92;;;0.60;;
16113;SDS011;8161;-33.910;151.156;2023-04-15T03:30:09;1.75;;;0.77;;
16113;SDS011;8161;-33.910;151.156;2023-04-15T03:32:37;2.58;;;0.70;;
16113;SDS011;8161;-33.910;151.156;2023-04-15T03:35:05;1.77;;;0.60;;
16113;SDS011;8161;-33.910;151.156;2023-04-15T03:37:32;2.13;;;0.70;;
16113;SDS011;8161;-33.910;151.156;2023-04-15T03:40:00;2.20;;;0.70;;
16113;SDS011;8161;-33.910;151.156;2023-04-15T03:42:27;2.40;;;0.65;;
16113;SDS011;8161;-33.910;151.156;2023-04-15T03:44:55;3.05;;;1.00;;
16113;SDS011;8161;-33.910;151.156;2023-04-15T03:47:22;4.40;;;0.85;;
16113;SDS011;8161;-33.910;151.156;2023-04-15T03:49:49;4.13;;;0.82;;
16113;SDS011;8161;-33.910;151.156;2023-04-15T03:52:16;4.15;;;1.10;;
16113;SDS011;8161;-33.910;151.156;2023-04-15T03:54:44;3.72;;;1.08;;
16113;SDS011;8161;-33.910;151.156;2023-04-15T03:57:11;6.60;;;1.13;;
16113;SDS011;8161;-33.910;151.156;2023-04-15T03:59:38;4.93;;;1.20;;
16113;SDS011;8161;-33.910;151.156;2023-04-15T04:02:05;3.42;;;1.00;;
16113;SDS011;8161;-33.910;151.156;2023-04-15T04:04:33;4.05;;;1.08;;
16113;SDS011;8161;-33.910;151.156;2023-04-15T04:07:00;4.57;;;1.17;;
16113;SDS011;8161;-33.910;151.156;2023-04-15T04:09:27;5.03;;;1.10;;
16113;SDS011;8161;-33.910;151.156;2023-04-15T04:11:54;4.95;;;1.08;;
16113;SDS011;8161;-33.910;151.156;2023-04-15T04:14:22;7.03;;;1.30;;
16113;SDS011;8161;-33.910;151.156;2023-04-15T04:16:54;3.20;;;1.08;;
16113;SDS011;8161;-33.910;151.156;2023-04-15T04:19:21;5.63;;;1.35;;
16113;SDS011;8161;-33.910;151.156;2023-04-15T04:21:49;6.20;;;1.13;;
16113;SDS011;8161;-33.910;151.156;2023-04-15T04:24:16;8.18;;;1.60;;
16113;SDS011;8161;-33.910;151.156;2023-04-15T04:26:43;3.65;;;1.27;;
16113;SDS011;8161;-33.910;151.156;2023-04-15T04:29:10;5.30;;;1.20;;
16113;SDS011;8161;-33.910;151.156;2023-04-15T04:31:38;9.35;;;2.08;;
16113;SDS011;8161;-33.910;151.156;2023-04-15T04:34:05;7.63;;;1.92;;
16113;SDS011;8161;-33.910;151.156;2023-04-15T04:36:32;5.53;;;1.30;;
16113;SDS011;8161;-33.910;151.156;2023-04-15T04:39:00;5.18;;;1.50;;
16113;SDS011;8161;-33.910;151.156;2023-04-15T04:41:27;7.15;;;1.58;;
16113;SDS011;8161;-33.910;151.156;2023-04-15T04:43:54;4.85;;;1.63;;
16113;SDS011;8161;-33.910;151.156;2023-04-15T04:46:22;6.57;;;1.67;;
16113;SDS011;8161;-33.910;151.156;2023-04-15T04:48:49;5.40;;;1.73;;
16113;SDS011;8161;-33.910;151.156;2023-04-15T04:51:16;6.60;;;1.70;;
16113;SDS011;8161;-33.910;151.156;2023-04-15T04:53:44;5.17;;;1.60;;
16113;SDS011;8161;-33.910;151.156;2023-04-15T04:56:11;6.78;;;2.10;;
16113;SDS011;8161;-33.910;151.156;2023-04-15T04:58:38;4.45;;;1.30;;
16113;SDS011;8161;-33.910;151.156;2023-04-15T05:01:06;8.40;;;1.30;;
16113;SDS011;8161;-33.910;151.156;2023-04-15T05:03:33;8.57;;;2.03;;
16113;SDS011;8161;-33.910;151.156;2023-04-15T05:06:01;9.02;;;1.80;;
16113;SDS011;8161;-33.910;151.156;2023-04-15T05:08:30;5.90;;;1.40;;
16113;SDS011;8161;-33.910;151.156;2023-04-15T05:10:57;5.93;;;1.35;;
16113;SDS011;8161;-33.910;151.156;2023-04-15T05:13:25;6.70;;;1.27;;
16113;SDS011;8161;-33.910;151.156;2023-04-15T05:15:52;5.60;;;1.38;;
16113;SDS011;8161;-33.910;151.156;2023-04-15T05:18:19;7.53;;;1.35;;
16113;SDS011;8161;-33.910;151.156;2023-04-15T05:20:46;8.97;;;1.60;;
16113;SDS011;8161;-33.910;151.156;2023-04-15T05:23:14;5.00;;;1.70;;
16113;SDS011;8161;-33.910;151.156;2023-04-15T05:25:42;6.20;;;1.50;;
16113;SDS011;8161;-33.910;151.156;2023-04-15T05:28:09;6.03;;;1.25;;
16113;SDS011;8161;-33.910;151.156;2023-04-15T05:30:37;5.97;;;1.30;;
16113;SDS011;8161;-33.910;151.156;2023-04-15T05:33:04;4.93;;;1.23;;
16113;SDS011;8161;-33.910;151.156;2023-04-15T05:35:31;6.07;;;1.30;;
16113;SDS011;8161;-33.910;151.156;2023-04-15T05:37:59;5.93;;;1.10;;
16113;SDS011;8161;-33.910;151.156;2023-04-15T05:40:26;8.47;;;1.40;;
16113;SDS011;8161;-33.910;151.156;2023-04-15T05:42:53;4.13;;;1.10;;
16113;SDS011;8161;-33.910;151.156;2023-04-15T05:45:21;5.75;;;1.30;;
16113;SDS011;8161;-33.910;151.156;2023-04-15T05:47:48;5.53;;;1.40;;
16113;SDS011;8161;-33.910;151.156;2023-04-15T05:50:18;8.77;;;1.33;;
16113;SDS011;8161;-33.910;151.156;2023-04-15T05:52:46;5.95;;;1.05;;
16113;SDS011;8161;-33.910;151.156;2023-04-15T05:55:13;5.38;;;1.10;;
16113;SDS011;8161;-33.910;151.156;2023-04-15T05:57:40;7.50;;;1.25;;
16113;SDS011;8161;-33.910;151.156;2023-04-15T06:00:08;4.75;;;1.40;;
16113;SDS011;8161;-33.910;151.156;2023-04-15T06:02:35;4.70;;;0.93;;
16113;SDS011;8161;-33.910;151.156;2023-04-15T06:05:03;5.15;;;1.40;;
16113;SDS011;8161;-33.910;151.156;2023-04-15T06:07:37;3.87;;;1.10;;
16113;SDS011;8161;-33.910;151.156;2023-04-15T06:10:04;3.95;;;1.10;;
16113;SDS011;8161;-33.910;151.156;2023-04-15T06:12:32;4.70;;;1.00;;
16113;SDS011;8161;-33.910;151.156;2023-04-15T06:14:59;5.40;;;1.30;;
16113;SDS011;8161;-33.910;151.156;2023-04-15T06:17:27;4.88;;;1.30;;
16113;SDS011;8161;-33.910;151.156;2023-04-15T06:19:54;3.90;;;1.20;;
16113;SDS011;8161;-33.910;151.156;2023-04-15T06:22:22;7.60;;;1.52;;
16113;SDS011;8161;-33.910;151.156;2023-04-15T06:24:49;6.47;;;1.33;;
16113;SDS011;8161;-33.910;151.156;2023-04-15T06:27:17;7.43;;;1.40;;
16113;SDS011;8161;-33.910;151.156;2023-04-15T06:29:45;6.38;;;1.50;;
16113;SDS011;8161;-33.910;151.156;2023-04-15T06:32:12;7.57;;;1.60;;
16113;SDS011;8161;-33.910;151.156;2023-04-15T06:34:39;6.45;;;1.20;;
16113;SDS011;8161;-33.910;151.156;2023-04-15T06:37:06;11.40;;;1.80;;
16113;SDS011;8161;-33.910;151.156;2023-04-15T06:39:41;5.15;;;1.38;;
16113;SDS011;8161;-33.910;151.156;2023-04-15T06:42:09;7.20;;;1.60;;
16113;SDS011;8161;-33.910;151.156;2023-04-15T06:44:36;6.38;;;1.70;;
16113;SDS011;8161;-33.910;151.156;2023-04-15T06:47:04;5.63;;;1.50;;
16113;SDS011;8161;-33.910;151.156;2023-04-15T06:49:31;7.40;;;2.13;;
16113;SDS011;8161;-33.910;151.156;2023-04-15T06:51:59;7.93;;;1.60;;
16113;SDS011;8161;-33.910;151.156;2023-04-15T06:54:28;11.70;;;1.92;;
16113;SDS011;8161;-33.910;151.156;2023-04-15T06:56:56;5.28;;;1.50;;
16113;SDS011;8161;-33.910;151.156;2023-04-15T06:59:23;4.45;;;1.65;;
16113;SDS011;8161;-33.910;151.156;2023-04-15T07:01:51;2.78;;;1.00;;
16113;SDS011;8161;-33.910;151.156;2023-04-15T07:04:22;3.70;;;1.40;;
16113;SDS011;8161;-33.910;151.156;2023-04-15T07:06:50;7.93;;;2.30;;
16113;SDS011;8161;-33.910;151.156;2023-04-15T07:09:17;7.75;;;1.73;;
16113;SDS011;8161;-33.910;151.156;2023-04-15T07:11:45;5.47;;;1.77;;
16113;SDS011;8161;-33.910;151.156;2023-04-15T07:14:12;4.77;;;2.20;;
16113;SDS011;8161;-33.910;151.156;2023-04-15T07:16:39;7.25;;;2.00;;
16113;SDS011;8161;-33.910;151.156;2023-04-15T07:19:06;5.05;;;1.80;;
16113;SDS011;8161;-33.910;151.156;2023-04-15T07:21:39;9.02;;;2.10;;
16113;SDS011;8161;-33.910;151.156;2023-04-15T07:24:06;4.82;;;1.48;;
16113;SDS011;8161;-33.910;151.156;2023-04-15T07:26:35;7.05;;;2.45;;
16113;SDS011;8161;-33.910;151.156;2023-04-15T07:29:02;6.45;;;2.10;;
16113;SDS011;8161;-33.910;151.156;2023-04-15T07:31:29;10.05;;;2.05;;
16113;SDS011;8161;-33.910;151.156;2023-04-15T07:33:56;7.72;;;2.20;;
16113;SDS011;8161;-33.910;151.156;2023-04-15T07:36:24;4.33;;;1.40;;
16113;SDS011;8161;-33.910;151.156;2023-04-15T07:38:51;4.55;;;1.95;;
16113;SDS011;8161;-33.910;151.156;2023-04-15T07:41:20;5.78;;;1.60;;
16113;SDS011;8161;-33.910;151.156;2023-04-15T07:43:47;5.40;;;1.73;;
16113;SDS011;8161;-33.910;151.156;2023-04-15T07:46:14;7.60;;;1.65;;
16113;SDS011;8161;-33.910;151.156;2023-04-15T07:48:41;4.88;;;1.40;;
16113;SDS011;8161;-33.910;151.156;2023-04-15T07:51:09;5.20;;;1.67;;
16113;SDS011;8161;-33.910;151.156;2023-04-15T07:53:37;9.23;;;1.90;;
16113;SDS011;8161;-33.910;151.156;2023-04-15T07:56:04;4.90;;;1.53;;
16113;SDS011;8161;-33.910;151.156;2023-04-15T07:58:32;8.07;;;1.93;;
16113;SDS011;8161;-33.910;151.156;2023-04-15T08:00:59;5.88;;;1.88;;
16113;SDS011;8161;-33.910;151.156;2023-04-15T08:03:30;7.68;;;1.80;;
16113;SDS011;8161;-33.910;151.156;2023-04-15T08:05:57;4.32;;;1.70;;
16113;SDS011;8161;-33.910;151.156;2023-04-15T08:08:27;5.97;;;1.70;;
16113;SDS011;8161;-33.910;151.156;2023-04-15T08:10:54;5.45;;;1.50;;
16113;SDS011;8161;-33.910;151.156;2023-04-15T08:13:24;5.80;;;1.77;;
16113;SDS011;8161;-33.910;151.156;2023-04-15T08:18:44;6.95;;;1.73;;
16113;SDS011;8161;-33.910;151.156;2023-04-15T08:21:15;7.13;;;1.80;;
16113;SDS011;8161;-33.910;151.156;2023-04-15T08:23:43;7.30;;;1.80;;
16113;SDS011;8161;-33.910;151.156;2023-04-15T08:26:11;7.10;;;2.35;;
16113;SDS011;8161;-33.910;151.156;2023-04-15T08:28:39;6.03;;;1.83;;
16113;SDS011;8161;-33.910;151.156;2023-04-15T08:31:07;4.85;;;1.73;;
16113;SDS011;8161;-33.910;151.156;2023-04-15T08:33:35;8.18;;;1.67;;
16113;SDS011;8161;-33.910;151.156;2023-04-15T08:36:02;4.72;;;1.30;;
16113;SDS011;8161;-33.910;151.156;2023-04-15T08:38:30;5.60;;;1.93;;
16113;SDS011;8161;-33.910;151.156;2023-04-15T08:40:59;5.28;;;1.67;;
16113;SDS011;8161;-33.910;151.156;2023-04-15T08:43:32;6.10;;;1.58;;
16113;SDS011;8161;-33.910;151.156;2023-04-15T08:46:04;7.18;;;1.65;;
16113;SDS011;8161;-33.910;151.156;2023-04-15T08:48:32;6.82;;;2.33;;
16113;SDS011;8161;-33.910;151.156;2023-04-15T08:51:03;6.47;;;1.75;;
16113;SDS011;8161;-33.910;151.156;2023-04-15T08:53:31;9.80;;;2.00;;
16113;SDS011;8161;-33.910;151.156;2023-04-15T08:56:00;9.23;;;2.00;;
16113;SDS011;8161;-33.910;151.156;2023-04-15T08:58:33;6.18;;;1.75;;
16113;SDS011;8161;-33.910;151.156;2023-04-15T09:01:01;5.88;;;1.80;;
16113;SDS011;8161;-33.910;151.156;2023-04-15T09:03:29;7.70;;;1.83;;
16113;SDS011;8161;-33.910;151.156;2023-04-15T09:05:56;6.70;;;1.90;;
16113;SDS011;8161;-33.910;151.156;2023-04-15T09:08:24;5.53;;;1.67;;
16113;SDS011;8161;-33.910;151.156;2023-04-15T09:10:52;5.57;;;1.90;;
16113;SDS011;8161;-33.910;151.156;2023-04-15T09:13:19;3.33;;;1.70;;
16113;SDS011;8161;-33.910;151.156;2023-04-15T09:15:47;5.57;;;1.92;;
16113;SDS011;8161;-33.910;151.156;2023-04-15T09:18:26;7.45;;;1.90;;
16113;SDS011;8161;-33.910;151.156;2023-04-15T09:21:06;4.90;;;2.03;;
16113;SDS011;8161;-33.910;151.156;2023-04-15T09:23:36;5.43;;;1.70;;
16113;SDS011;8161;-33.910;151.156;2023-04-15T09:26:05;5.70;;;2.00;;
16113;SDS011;8161;-33.910;151.156;2023-04-15T09:28:32;7.15;;;2.33;;
16113;SDS011;8161;-33.910;151.156;2023-04-15T09:31:06;5.95;;;1.92;;
16113;SDS011;8161;-33.910;151.156;2023-04-15T09:33:35;5.20;;;2.10;;
16113;SDS011;8161;-33.910;151.156;2023-04-15T09:36:18;7.82;;;2.47;;
16113;SDS011;8161;-33.910;151.156;2023-04-15T09:38:55;4.53;;;1.77;;
16113;SDS011;8161;-33.910;151.156;2023-04-15T09:41:24;5.67;;;1.87;;
16113;SDS011;8161;-33.910;151.156;2023-04-15T09:43:53;8.48;;;2.20;;
16113;SDS011;8161;-33.910;151.156;2023-04-15T09:46:20;5.85;;;1.92;;
16113;SDS011;8161;-33.910;151.156;2023-04-15T09:49:10;7.60;;;1.80;;
16113;SDS011;8161;-33.910;151.156;2023-04-15T09:51:37;11.38;;;3.85;;
16113;SDS011;8161;-33.910;151.156;2023-04-15T09:54:05;35.67;;;17.38;;
16113;SDS011;8161;-33.910;151.156;2023-04-15T09:56:35;19.63;;;7.73;;
16113;SDS011;8161;-33.910;151.156;2023-04-15T09:59:07;11.85;;;3.20;;
16113;SDS011;8161;-33.910;151.156;2023-04-15T10:01:34;7.93;;;2.35;;
16113;SDS011;8161;-33.910;151.156;2023-04-15T10:04:02;13.20;;;3.47;;
16113;SDS011;8161;-33.910;151.156;2023-04-15T10:06:31;7.10;;;2.30;;
16113;SDS011;8161;-33.910;151.156;2023-04-15T10:09:00;9.10;;;1.90;;
16113;SDS011;8161;-33.910;151.156;2023-04-15T10:11:28;6.20;;;1.60;;
16113;SDS011;8161;-33.910;151.156;2023-04-15T10:13:57;7.00;;;2.00;;
16113;SDS011;8161;-33.910;151.156;2023-04-15T10:16:27;6.38;;;1.80;;
16113;SDS011;8161;-33.910;151.156;2023-04-15T10:18:57;5.38;;;1.65;;
16113;SDS011;8161;-33.910;151.156;2023-04-15T10:21:29;6.95;;;2.03;;
16113;SDS011;8161;-33.910;151.156;2023-04-15T10:23:57;4.85;;;1.50;;
16113;SDS011;8161;-33.910;151.156;2023-04-15T10:26:26;6.40;;;1.67;;
16113;SDS011;8161;-33.910;151.156;2023-04-15T10:28:53;5.30;;;1.55;;
16113;SDS011;8161;-33.910;151.156;2023-04-15T10:31:20;7.78;;;1.90;;
16113;SDS011;8161;-33.910;151.156;2023-04-15T10:33:49;5.90;;;1.65;;
16113;SDS011;8161;-33.910;151.156;2023-04-15T10:36:16;7.38;;;2.10;;
16113;SDS011;8161;-33.910;151.156;2023-04-15T10:38:45;6.18;;;2.03;;
16113;SDS011;8161;-33.910;151.156;2023-04-15T10:43:59;6.73;;;2.20;;
16113;SDS011;8161;-33.910;151.156;2023-04-15T10:46:37;8.15;;;1.95;;
16113;SDS011;8161;-33.910;151.156;2023-04-15T10:49:15;7.30;;;2.15;;
16113;SDS011;8161;-33.910;151.156;2023-04-15T10:51:53;7.97;;;2.13;;
16113;SDS011;8161;-33.910;151.156;2023-04-15T10:56:51;10.02;;;2.13;;
16113;SDS011;8161;-33.910;151.156;2023-04-15T10:59:35;10.70;;;2.58;;
16113;SDS011;8161;-33.910;151.156;2023-04-15T11:02:03;7.53;;;2.03;;
16113;SDS011;8161;-33.910;151.156;2023-04-15T11:12:51;6.50;;;1.75;;
16113;SDS011;8161;-33.910;151.156;2023-04-15T11:18:13;6.20;;;1.40;;
16113;SDS011;8161;-33.910;151.156;2023-04-15T11:25:55;6.97;;;1.63;;
16113;SDS011;8161;-33.910;151.156;2023-04-15T11:28:26;7.40;;;1.50;;
16113;SDS011;8161;-33.910;151.156;2023-04-15T11:30:53;6.88;;;1.30;;
16113;SDS011;8161;-33.910;151.156;2023-04-15T11:33:24;6.53;;;1.92;;
16113;SDS011;8161;-33.910;151.156;2023-04-15T11:35:52;6.32;;;1.50;;
16113;SDS011;8161;-33.910;151.156;2023-04-15T11:38:19;6.95;;;1.40;;
16113;SDS011;8161;-33.910;151.156;2023-04-15T11:40:47;4.07;;;1.40;;
16113;SDS011;8161;-33.910;151.156;2023-04-15T11:43:19;7.45;;;2.30;;
16113;SDS011;8161;-33.910;151.156;2023-04-15T11:48:20;2.83;;;1.20;;
16113;SDS011;8161;-33.910;151.156;2023-04-15T11:50:59;6.55;;;1.33;;
16113;SDS011;8161;-33.910;151.156;2023-04-15T11:53:41;4.50;;;1.20;;
16113;SDS011;8161;-33.910;151.156;2023-04-15T11:56:10;3.72;;;1.38;;
16113;SDS011;8161;-33.910;151.156;2023-04-15T11:58:45;6.95;;;1.63;;
16113;SDS011;8161;-33.910;151.156;2023-04-15T12:01:18;8.90;;;1.50;;
16113;SDS011;8161;-33.910;151.156;2023-04-15T12:03:45;5.40;;;1.40;;
16113;SDS011;8161;-33.910;151.156;2023-04-15T12:11:30;5.93;;;1.20;;
16113;SDS011;8161;-33.910;151.156;2023-04-15T12:14:05;6.63;;;1.33;;
16113;SDS011;8161;-33.910;151.156;2023-04-15T12:16:42;4.65;;;1.27;;
16113;SDS011;8161;-33.910;151.156;2023-04-15T12:19:11;4.23;;;1.30;;
16113;SDS011;8161;-33.910;151.156;2023-04-15T12:21:40;5.50;;;1.40;;
16113;SDS011;8161;-33.910;151.156;2023-04-15T12:24:10;5.65;;;1.55;;
16113;SDS011;8161;-33.910;151.156;2023-04-15T12:26:47;4.40;;;1.20;;
16113;SDS011;8161;-33.910;151.156;2023-04-15T12:29:15;3.40;;;1.30;;
16113;SDS011;8161;-33.910;151.156;2023-04-15T12:31:46;3.22;;;1.30;;
16113;SDS011;8161;-33.910;151.156;2023-04-15T12:34:16;5.72;;;1.40;;
16113;SDS011;8161;-33.910;151.156;2023-04-15T12:36:50;7.03;;;1.40;;
16113;SDS011;8161;-33.910;151.156;2023-04-15T12:39:20;4.23;;;1.43;;
16113;SDS011;8161;-33.910;151.156;2023-04-15T12:41:51;3.20;;;1.20;;
16113;SDS011;8161;-33.910;151.156;2023-04-15T12:44:21;4.53;;;1.50;;
16113;SDS011;8161;-33.910;151.156;2023-04-15T12:46:52;4.88;;;1.65;;
16113;SDS011;8161;-33.910;151.156;2023-04-15T12:49:20;3.30;;;1.30;;
16113;SDS011;8161;-33.910;151.156;2023-04-15T12:51:49;6.47;;;1.20;;
16113;SDS011;8161;-33.910;151.156;2023-04-15T12:54:18;5.35;;;1.52;;
16113;SDS011;8161;-33.910;151.156;2023-04-15T12:56:47;5.37;;;1.20;;
16113;SDS011;8161;-33.910;151.156;2023-04-15T12:59:16;4.07;;;1.40;;
16113;SDS011;8161;-33.910;151.156;2023-04-15T13:01:44;4.70;;;1.30;;
16113;SDS011;8161;-33.910;151.156;2023-04-15T13:04:12;5.68;;;1.30;;
16113;SDS011;8161;-33.910;151.156;2023-04-15T13:06:42;4.10;;;1.15;;
16113;SDS011;8161;-33.910;151.156;2023-04-15T13:09:10;5.90;;;1.40;;
16113;SDS011;8161;-33.910;151.156;2023-04-15T13:11:37;5.00;;;1.43;;
16113;SDS011;8161;-33.910;151.156;2023-04-15T13:14:05;4.57;;;1.30;;
16113;SDS011;8161;-33.910;151.156;2023-04-15T13:16:34;3.47;;;1.20;;
16113;SDS011;8161;-33.910;151.156;2023-04-15T13:19:02;2.90;;;1.23;;
16113;SDS011;8161;-33.910;151.156;2023-04-15T13:21:30;3.67;;;1.10;;
16113;SDS011;8161;-33.910;151.156;2023-04-15T13:23:59;4.35;;;1.02;;
16113;SDS011;8161;-33.910;151.156;2023-04-15T13:26:26;2.80;;;1.20;;
16113;SDS011;8161;-33.910;151.156;2023-04-15T13:28:54;6.38;;;1.50;;
16113;SDS011;8161;-33.910;151.156;2023-04-15T13:31:21;4.35;;;1.33;;
16113;SDS011;8161;-33.910;151.156;2023-04-15T13:33:48;5.83;;;1.13;;
16113;SDS011;8161;-33.910;151.156;2023-04-15T13:36:15;2.22;;;0.98;;
16113;SDS011;8161;-33.910;151.156;2023-04-15T13:38:42;4.55;;;1.20;;
16113;SDS011;8161;-33.910;151.156;2023-04-15T13:41:10;3.97;;;1.00;;
16113;SDS011;8161;-33.910;151.156;2023-04-15T13:43:37;2.55;;;1.05;;
16113;SDS011;8161;-33.910;151.156;2023-04-15T13:46:05;3.97;;;1.10;;
16113;SDS011;8161;-33.910;151.156;2023-04-15T13:48:32;3.27;;;1.00;;
16113;SDS011;8161;-33.910;151.156;2023-04-15T13:50:59;3.97;;;1.02;;
16113;SDS011;8161;-33.910;151.156;2023-04-15T13:53:27;2.88;;;1.02;;
16113;SDS011;8161;-33.910;151.156;2023-04-15T13:55:55;1.92;;;0.90;;
16113;SDS011;8161;-33.910;151.156;2023-04-15T13:58:22;2.28;;;0.88;;
16113;SDS011;8161;-33.910;151.156;2023-04-15T14:00:49;3.38;;;1.10;;
16113;SDS011;8161;-33.910;151.156;2023-04-15T14:03:17;4.13;;;1.20;;
16113;SDS011;8161;-33.910;151.156;2023-04-15T14:05:44;4.68;;;0.90;;
16113;SDS011;8161;-33.910;151.156;2023-04-15T14:08:11;3.13;;;1.10;;
16113;SDS011;8161;-33.910;151.156;2023-04-15T14:10:39;3.65;;;1.08;;
16113;SDS011;8161;-33.910;151.156;2023-04-15T14:13:08;3.10;;;1.20;;
16113;SDS011;8161;-33.910;151.156;2023-04-15T14:15:35;6.70;;;1.40;;
16113;SDS011;8161;-33.910;151.156;2023-04-15T14:18:03;2.92;;;1.02;;
16113;SDS011;8161;-33.910;151.156;2023-04-15T14:20:30;1.75;;;0.90;;
16113;SDS011;8161;-33.910;151.156;2023-04-15T14:22:57;3.83;;;0.82;;
16113;SDS011;8161;-33.910;151.156;2023-04-15T14:25:25;7.30;;;1.00;;
16113;SDS011;8161;-33.910;151.156;2023-04-15T14:27:56;2.25;;;0.95;;
16113;SDS011;8161;-33.910;151.156;2023-04-15T14:30:23;3.13;;;1.00;;
16113;SDS011;8161;-33.910;151.156;2023-04-15T14:32:50;3.88;;;0.82;;
16113;SDS011;8161;-33.910;151.156;2023-04-15T14:35:18;2.63;;;1.00;;
16113;SDS011;8161;-33.910;151.156;2023-04-15T14:37:45;4.03;;;0.90;;
16113;SDS011;8161;-33.910;151.156;2023-04-15T14:40:12;2.33;;;1.00;;
16113;SDS011;8161;-33.910;151.156;2023-04-15T14:42:39;2.95;;;0.93;;
16113;SDS011;8161;-33.910;151.156;2023-04-15T14:45:07;2.70;;;0.90;;
16113;SDS011;8161;-33.910;151.156;2023-04-15T14:47:35;4.10;;;1.10;;
16113;SDS011;8161;-33.910;151.156;2023-04-15T14:50:02;3.00;;;1.03;;
16113;SDS011;8161;-33.910;151.156;2023-04-15T14:52:30;2.50;;;1.08;;
16113;SDS011;8161;-33.910;151.156;2023-04-15T14:55:07;3.28;;;1.20;;
16113;SDS011;8161;-33.910;151.156;2023-04-15T14:57:36;4.03;;;1.27;;
16113;SDS011;8161;-33.910;151.156;2023-04-15T15:00:08;3.53;;;1.05;;